Time;durP1;ratioP1;P1;durP2;ratioP2;P2;SDS_P1;SDS_P2;PMS_P1;PMS_P2;Temp;Humidity;BMP_temperature;BMP_pressure;BME280_temperature;BME280_humidity;BME280_pressure;Samples;Min_cycle;Max_cycle;Signal;HPM_P1;HPM_P2
2023/10/26 00:01:29;;;;;;;5.32;3.83;;;;;;;;;;10287569;28;20546;-59
2023/10/26 00:06:29;;;;;;;7.65;4.00;;;;;;;;;;10287340;28;20478;-59
2023/10/26 00:11:30;;;;;;;5.05;4.10;;;;;;;;;;10285329;28;20531;-60
2023/10/26 00:16:30;;;;;;;8.30;3.65;;;;;;;;;;10279496;28;20368;-60
2023/10/26 00:21:31;;;;;;;5.00;3.47;;;;;;;;;;10285097;28;20031;-58
2023/10/26 00:26:32;;;;;;;7.25;3.72;;;;;;;;;;10286319;28;20038;-58
2023/10/26 00:31:32;;;;;;;5.28;4.05;;;;;;;;;;10276305;28;20035;-60
2023/10/26 00:36:33;;;;;;;4.50;3.80;;;;;;;;;;10277117;28;20108;-58
2023/10/26 00:41:33;;;;;;;8.32;3.80;;;;;;;;;;10283455;28;20394;-58
2023/10/26 00:46:35;;;;;;;9.48;3.80;;;;;;;;;;10284744;28;20368;-58
2023/10/26 00:51:36;;;;;;;6.45;3.70;;;;;;;;;;10280804;28;20472;-58
2023/10/26 00:56:37;;;;;;;8.88;3.60;;;;;;;;;;10284206;28;20038;-60
2023/10/26 01:01:38;;;;;;;4.47;3.65;;;;;;;;;;10290906;28;20054;-59
2023/10/26 01:06:38;;;;;;;8.10;4.10;;;;;;;;;;10283651;28;20034;-58
2023/10/26 01:11:39;;;;;;;5.93;3.42;;;;;;;;;;10285403;28;20046;-58
2023/10/26 01:16:40;;;;;;;8.77;3.40;;;;;;;;;;10266822;28;20039;-58
2023/10/26 01:21:53;;;;;;;5.00;3.22;;;;;;;;;;10285993;28;20018;-58
2023/10/26 01:26:54;;;;;;;6.68;3.50;;;;;;;;;;10284834;28;20031;-58
2023/10/26 01:31:54;;;;;;;6.10;3.70;;;;;;;;;;10286478;28;20023;-58
2023/10/26 01:36:55;;;;;;;3.97;3.03;;;;;;;;;;10290443;28;20039;-58
2023/10/26 01:41:55;;;;;;;3.88;3.00;;;;;;;;;;10292381;28;20456;-58
2023/10/26 01:46:56;;;;;;;4.90;3.42;;;;;;;;;;10279214;28;20061;-59
2023/10/26 01:51:57;;;;;;;5.47;3.50;;;;;;;;;;10291285;28;20046;-59
2023/10/26 01:56:59;;;;;;;6.82;3.88;;;;;;;;;;10290446;28;20050;-59
2023/10/26 02:01:59;;;;;;;4.57;3.20;;;;;;;;;;10291370;28;20045;-59
2023/10/26 02:07:00;;;;;;;3.40;3.10;;;;;;;;;;10292400;28;20035;-58
2023/10/26 02:12:00;;;;;;;4.75;3.47;;;;;;;;;;10289713;28;20031;-58
2023/10/26 02:17:01;;;;;;;7.28;3.60;;;;;;;;;;10284676;28;20089;-58
2023/10/26 02:22:01;;;;;;;4.40;3.58;;;;;;;;;;10284734;28;20042;-58
2023/10/26 02:27:02;;;;;;;5.50;3.60;;;;;;;;;;10288462;28;20031;-59
2023/10/26 02:32:03;;;;;;;4.63;2.72;;;;;;;;;;10289755;28;20104;-56
2023/10/26 02:37:04;;;;;;;6.63;3.55;;;;;;;;;;10290298;28;20049;-56
2023/10/26 02:42:04;;;;;;;5.32;3.08;;;;;;;;;;10283131;28;20054;-55
2023/10/26 02:47:05;;;;;;;5.50;3.30;;;;;;;;;;10288954;28;20037;-55
2023/10/26 02:52:06;;;;;;;3.78;2.85;;;;;;;;;;10287028;28;20126;-55
2023/10/26 02:57:06;;;;;;;3.35;2.97;;;;;;;;;;10289584;28;20027;-56
2023/10/26 03:02:07;;;;;;;3.95;3.03;;;;;;;;;;10292138;28;20494;-57
2023/10/26 03:07:10;;;;;;;3.28;2.97;;;;;;;;;;10289235;28;20110;-58
2023/10/26 03:12:11;;;;;;;4.10;2.95;;;;;;;;;;10286892;28;20392;-58
2023/10/26 03:17:15;;;;;;;4.18;3.00;;;;;;;;;;10284576;28;20031;-59
2023/10/26 03:22:15;;;;;;;4.95;3.35;;;;;;;;;;10285433;28;20058;-59
2023/10/26 03:27:16;;;;;;;3.42;3.00;;;;;;;;;;10294389;28;20050;-59
2023/10/26 03:32:17;;;;;;;4.47;3.10;;;;;;;;;;10284104;28;20026;-58
2023/10/26 03:37:17;;;;;;;3.22;2.83;;;;;;;;;;10286412;28;20118;-56
2023/10/26 03:42:18;;;;;;;3.15;2.85;;;;;;;;;;10284337;28;20027;-55
2023/10/26 03:47:18;;;;;;;5.30;3.17;;;;;;;;;;10289927;28;20505;-53
2023/10/26 03:52:21;;;;;;;2.97;2.65;;;;;;;;;;10285915;28;20445;-55
2023/10/26 03:57:22;;;;;;;4.28;2.85;;;;;;;;;;10282587;28;20035;-56
2023/10/26 04:02:23;;;;;;;4.35;2.83;;;;;;;;;;10287459;28;20101;-56
2023/10/26 04:07:23;;;;;;;3.63;2.85;;;;;;;;;;10285272;28;20042;-55
2023/10/26 04:12:24;;;;;;;2.90;2.60;;;;;;;;;;10286803;28;20042;-58
2023/10/26 04:17:24;;;;;;;5.25;2.95;;;;;;;;;;10281855;28;20364;-59
2023/10/26 04:22:26;;;;;;;3.75;2.83;;;;;;;;;;10281415;28;20434;-58
2023/10/26 04:27:27;;;;;;;5.47;3.00;;;;;;;;;;10286637;28;20041;-59
2023/10/26 04:32:27;;;;;;;4.93;2.70;;;;;;;;;;10289908;28;20379;-59
2023/10/26 04:37:28;;;;;;;4.85;3.22;;;;;;;;;;10275791;28;20394;-59
2023/10/26 04:42:28;;;;;;;2.70;2.50;;;;;;;;;;10284401;28;20029;-61
2023/10/26 04:47:29;;;;;;;4.05;3.03;;;;;;;;;;10285773;28;20026;-59
2023/10/26 04:52:29;;;;;;;3.47;2.53;;;;;;;;;;10284478;28;20042;-59
2023/10/26 04:57:30;;;;;;;3.05;2.75;;;;;;;;;;10278735;28;20023;-59
2023/10/26 05:02:31;;;;;;;2.92;2.50;;;;;;;;;;10290425;28;20099;-59
2023/10/26 05:07:31;;;;;;;3.35;2.75;;;;;;;;;;10265803;28;20480;-60
2023/10/26 05:12:32;;;;;;;2.63;2.38;;;;;;;;;;10270609;28;20028;-59
2023/10/26 05:17:32;;;;;;;2.67;2.40;;;;;;;;;;10264963;28;20034;-60
2023/10/26 05:22:33;;;;;;;5.38;2.75;;;;;;;;;;10261849;28;20480;-60
2023/10/26 05:27:34;;;;;;;2.38;2.17;;;;;;;;;;10259052;28;20477;-60
2023/10/26 05:32:34;;;;;;;3.22;2.60;;;;;;;;;;10269991;28;20026;-77
2023/10/26 05:37:36;;;;;;;2.55;2.25;;;;;;;;;;10266018;28;20027;-75
2023/10/26 05:42:37;;;;;;;2.88;2.40;;;;;;;;;;10263737;28;20028;-73
2023/10/26 05:47:37;;;;;;;2.38;2.17;;;;;;;;;;10265640;28;20625;-73
2023/10/26 05:52:38;;;;;;;2.65;2.45;;;;;;;;;;10269130;28;20051;-74
2023/10/26 05:57:38;;;;;;;2.78;2.28;;;;;;;;;;10263559;28;20023;-76
2023/10/26 06:02:40;;;;;;;2.30;2.10;;;;;;;;;;10292184;28;20030;-70
2023/10/26 06:07:41;;;;;;;5.32;2.30;;;;;;;;;;10279591;28;20046;-73
2023/10/26 06:12:41;;;;;;;2.70;2.50;;;;;;;;;;10280780;28;20023;-75
2023/10/26 06:17:42;;;;;;;3.28;2.20;;;;;;;;;;10286226;28;20031;-77
2023/10/26 06:22:43;;;;;;;3.20;2.35;;;;;;;;;;10288855;28;20027;-78
2023/10/26 06:27:43;;;;;;;2.60;2.10;;;;;;;;;;10286475;28;20037;-77
2023/10/26 06:32:44;;;;;;;2.50;2.10;;;;;;;;;;10286266;28;20097;-78
2023/10/26 06:37:44;;;;;;;2.83;2.50;;;;;;;;;;10281156;28;20031;-76
2023/10/26 06:42:45;;;;;;;2.35;2.10;;;;;;;;;;10284841;28;20097;-79
2023/10/26 06:47:45;;;;;;;2.95;2.50;;;;;;;;;;10288167;28;20026;-79
2023/10/26 06:52:46;;;;;;;2.30;2.10;;;;;;;;;;10288764;28;20034;-79
2023/10/26 06:57:47;;;;;;;2.75;2.40;;;;;;;;;;10278972;28;20031;-78
2023/10/26 07:02:47;;;;;;;2.92;2.40;;;;;;;;;;10287046;28;20073;-71
2023/10/26 07:07:48;;;;;;;2.55;2.35;;;;;;;;;;10287202;28;20030;-72
2023/10/26 07:12:49;;;;;;;3.03;2.15;;;;;;;;;;10286673;28;20042;-72
2023/10/26 07:17:50;;;;;;;3.53;2.40;;;;;;;;;;10288071;28;20042;-72
2023/10/26 07:22:52;;;;;;;4.55;1.95;;;;;;;;;;10286706;28;20364;-73
2023/10/26 07:27:52;;;;;;;4.03;2.45;;;;;;;;;;10289190;28;20050;-79
2023/10/26 07:32:53;;;;;;;2.53;2.05;;;;;;;;;;10290374;28;20058;-77
2023/10/26 07:37:54;;;;;;;2.67;2.42;;;;;;;;;;10282679;28;20035;-72
2023/10/26 07:42:54;;;;;;;2.35;2.15;;;;;;;;;;10267650;28;20022;-59
2023/10/26 07:47:56;;;;;;;3.53;2.15;;;;;;;;;;10268785;28;20038;-65
2023/10/26 07:52:57;;;;;;;9.55;2.60;;;;;;;;;;10277673;28;20055;-65
2023/10/26 07:57:57;;;;;;;2.83;2.15;;;;;;;;;;10275682;28;20463;-64
2023/10/26 08:02:59;;;;;;;5.85;2.83;;;;;;;;;;10291597;28;20061;-67
2023/10/26 08:08:01;;;;;;;6.55;2.83;;;;;;;;;;10282823;28;20031;-65
2023/10/26 08:13:03;;;;;;;6.20;3.40;;;;;;;;;;10262868;28;20038;-66
2023/10/26 08:18:03;;;;;;;6.95;3.05;;;;;;;;;;10256803;28;20034;-65
2023/10/26 08:23:04;;;;;;;5.85;3.47;;;;;;;;;;10257759;28;20035;-69
2023/10/26 08:28:04;;;;;;;8.70;3.15;;;;;;;;;;10255769;28;20047;-62
2023/10/26 08:33:05;;;;;;;6.75;3.78;;;;;;;;;;10260522;28;20475;-61
2023/10/26 08:38:06;;;;;;;9.60;3.85;;;;;;;;;;10259178;28;20027;-63
2023/10/26 08:43:07;;;;;;;9.73;4.00;;;;;;;;;;10260704;28;20387;-63
2023/10/26 08:48:08;;;;;;;4.72;3.70;;;;;;;;;;10267356;28;20046;-62
2023/10/26 08:53:09;;;;;;;8.20;4.22;;;;;;;;;;10240593;28;20686;-61
2023/10/26 08:58:10;;;;;;;7.75;4.20;;;;;;;;;;10241735;28;20502;-59
2023/10/26 09:03:11;;;;;;;12.20;4.07;;;;;;;;;;10248417;28;20027;-59
2023/10/26 09:08:18;;;;;;;6.55;3.90;;;;;;;;;;10250564;28;20472;-60
2023/10/26 09:13:28;;;;;;;10.57;4.20;;;;;;;;;;10243117;28;20094;-58
2023/10/26 09:18:31;;;;;;;9.85;3.88;;;;;;;;;;10248990;28;20122;-60
2023/10/26 09:23:43;;;;;;;13.70;3.67;;;;;;;;;;10248393;28;20058;-59
2023/10/26 09:28:55;;;;;;;6.38;4.15;;;;;;;;;;10251231;28;20439;-59
2023/10/26 09:34:10;;;;;;;8.38;3.47;;;;;;;;;;10247187;28;20101;-63
2023/10/26 09:39:11;;;;;;;7.18;3.83;;;;;;;;;;10238187;28;20491;-64
2023/10/26 09:44:11;;;;;;;9.00;4.07;;;;;;;;;;10209391;28;20032;-63
2023/10/26 09:49:12;;;;;;;7.15;3.33;;;;;;;;;;10222772;28;20112;-62
2023/10/26 09:54:14;;;;;;;8.35;3.72;;;;;;;;;;10228003;28;20122;-65
2023/10/26 09:59:16;;;;;;;5.85;3.60;;;;;;;;;;10219883;28;20134;-62
2023/10/26 10:04:33;;;;;;;4.45;3.20;;;;;;;;;;10219763;28;20031;-65
2023/10/26 10:10:05;;;;;;;5.22;3.40;;;;;;;;;;10222302;28;20035;-65
2023/10/26 10:15:08;;;;;;;7.00;4.20;;;;;;;;;;10236715;28;20037;-63
2023/10/26 10:20:15;;;;;;;4.75;3.67;;;;;;;;;;10242567;29;20027;-64
2023/10/26 10:25:19;;;;;;;8.32;4.22;;;;;;;;;;10248470;29;20086;-65
2023/10/26 10:30:27;;;;;;;8.60;4.53;;;;;;;;;;10231019;28;20066;-64
2023/10/26 10:35:48;;;;;;;8.30;4.67;;;;;;;;;;10247591;29;20031;-58
2023/10/26 10:40:55;;;;;;;7.93;4.30;;;;;;;;;;10240792;29;20031;-60
2023/10/26 10:45:55;;;;;;;8.35;4.30;;;;;;;;;;10247654;29;20031;-58
2023/10/26 10:50:56;;;;;;;7.75;4.88;;;;;;;;;;10248095;29;20047;-60
2023/10/26 10:55:58;;;;;;;7.35;5.03;;;;;;;;;;10245728;29;20038;-62
2023/10/26 11:00:58;;;;;;;15.65;5.32;;;;;;;;;;10237415;28;20058;-61
2023/10/26 11:05:59;;;;;;;9.30;5.80;;;;;;;;;;10241379;28;20566;-59
2023/10/26 11:11:00;;;;;;;11.90;5.75;;;;;;;;;;10247488;28;20497;-63
2023/10/26 11:16:00;;;;;;;9.02;5.03;;;;;;;;;;10242092;28;20039;-59
2023/10/26 11:21:01;;;;;;;10.20;6.40;;;;;;;;;;10243268;28;20061;-61
2023/10/26 11:26:14;;;;;;;11.43;7.30;;;;;;;;;;10248361;28;20035;-60
2023/10/26 11:31:15;;;;;;;9.52;6.68;;;;;;;;;;10245102;28;20046;-61
2023/10/26 11:36:16;;;;;;;9.05;5.60;;;;;;;;;;10244801;28;20038;-63
2023/10/26 11:41:28;;;;;;;25.05;5.07;;;;;;;;;;10243027;29;20034;-69
2023/10/26 11:46:36;;;;;;;8.32;4.88;;;;;;;;;;10244537;29;20369;-65
2023/10/26 11:51:37;;;;;;;8.70;4.68;;;;;;;;;;10244410;29;20039;-70
2023/10/26 11:56:38;;;;;;;5.28;3.70;;;;;;;;;;10245541;29;20503;-69
2023/10/26 12:01:39;;;;;;;7.97;4.53;;;;;;;;;;10243727;28;20121;-68
2023/10/26 12:06:39;;;;;;;4.60;3.92;;;;;;;;;;10244576;28;20023;-63
2023/10/26 12:11:41;;;;;;;5.38;3.97;;;;;;;;;;10236892;28;20139;-69
2023/10/26 12:16:43;;;;;;;7.05;4.43;;;;;;;;;;10244115;28;20047;-70
2023/10/26 12:21:44;;;;;;;6.05;3.65;;;;;;;;;;10244407;28;20042;-69
2023/10/26 12:26:44;;;;;;;5.15;3.97;;;;;;;;;;10242779;28;20019;-64
2023/10/26 12:31:45;;;;;;;7.53;3.70;;;;;;;;;;10236722;28;20151;-61
2023/10/26 12:36:46;;;;;;;4.40;3.13;;;;;;;;;;10242921;29;20027;-70
2023/10/26 12:41:46;;;;;;;4.35;3.10;;;;;;;;;;10242158;29;20177;-70
2023/10/26 12:46:52;;;;;;;6.97;3.60;;;;;;;;;;10235775;29;20027;-59
2023/10/26 12:51:52;;;;;;;8.10;3.35;;;;;;;;;;10238270;28;20051;-68
2023/10/26 12:56:53;;;;;;;4.85;3.10;;;;;;;;;;10239825;29;20039;-61
2023/10/26 13:01:54;;;;;;;4.93;3.03;;;;;;;;;;10236424;28;20027;-68
2023/10/26 13:06:54;;;;;;;3.22;2.65;;;;;;;;;;10240674;28;20035;-66
2023/10/26 13:11:55;;;;;;;4.50;3.10;;;;;;;;;;10238983;28;20387;-61
2023/10/26 13:16:55;;;;;;;6.18;2.58;;;;;;;;;;10239828;28;20028;-66
2023/10/26 13:21:56;;;;;;;5.50;2.85;;;;;;;;;;10239408;28;20050;-61
2023/10/26 13:26:57;;;;;;;4.78;2.88;;;;;;;;;;10214803;28;20110;-62
2023/10/26 13:31:58;;;;;;;5.88;3.17;;;;;;;;;;10221548;28;20031;-63
2023/10/26 13:36:59;;;;;;;5.70;2.88;;;;;;;;;;10245256;28;20039;-62
2023/10/26 13:41:59;;;;;;;4.72;3.28;;;;;;;;;;10252272;28;20511;-60
2023/10/26 13:47:00;;;;;;;3.63;2.45;;;;;;;;;;10248611;28;20042;-64
2023/10/26 13:52:00;;;;;;;5.55;2.78;;;;;;;;;;10234147;28;20039;-62
2023/10/26 13:57:02;;;;;;;6.15;2.95;;;;;;;;;;10233554;28;20407;-67
2023/10/26 14:02:03;;;;;;;3.08;2.38;;;;;;;;;;10232782;28;20505;-69
2023/10/26 14:07:04;;;;;;;8.13;2.85;;;;;;;;;;10238662;28;20118;-67
2023/10/26 14:12:05;;;;;;;5.45;2.70;;;;;;;;;;10249119;28;20502;-63
2023/10/26 14:17:06;;;;;;;6.85;2.60;;;;;;;;;;10240009;28;20061;-62
2023/10/26 14:22:06;;;;;;;10.20;3.35;;;;;;;;;;10220295;28;20028;-61
2023/10/26 14:27:07;;;;;;;10.80;4.85;;;;;;;;;;10234829;28;20455;-61
2023/10/26 14:32:07;;;;;;;18.20;5.32;;;;;;;;;;10247312;29;20472;-60
2023/10/26 14:37:08;;;;;;;25.65;7.07;;;;;;;;;;10247246;29;20395;-61
2023/10/26 14:42:10;;;;;;;21.40;6.55;;;;;;;;;;10245848;28;20050;-60
2023/10/26 14:47:11;;;;;;;21.25;6.63;;;;;;;;;;10247778;29;20035;-61
2023/10/26 14:52:11;;;;;;;12.13;5.75;;;;;;;;;;10245691;29;20058;-61
2023/10/26 14:57:12;;;;;;;11.65;5.50;;;;;;;;;;10242459;29;20046;-61
2023/10/26 15:02:13;;;;;;;17.85;6.35;;;;;;;;;;10235509;28;20090;-63
2023/10/26 15:07:14;;;;;;;16.52;5.68;;;;;;;;;;10248214;28;20031;-63
2023/10/26 15:12:15;;;;;;;18.80;5.93;;;;;;;;;;10225119;28;20039;-62
2023/10/26 15:17:16;;;;;;;12.13;5.63;;;;;;;;;;10239668;28;20039;-62
2023/10/26 15:22:16;;;;;;;9.98;4.90;;;;;;;;;;10240285;29;20023;-65
2023/10/26 15:27:17;;;;;;;18.02;5.13;;;;;;;;;;10245255;29;20039;-67
2023/10/26 15:32:18;;;;;;;15.60;5.32;;;;;;;;;;10238963;28;20408;-63
2023/10/26 15:37:22;;;;;;;8.95;4.57;;;;;;;;;;10231672;28;20031;-61
2023/10/26 15:42:23;;;;;;;11.73;4.97;;;;;;;;;;10244203;29;20035;-62
2023/10/26 15:47:24;;;;;;;6.35;4.22;;;;;;;;;;10233673;28;20039;-59
2023/10/26 15:52:25;;;;;;;7.45;4.28;;;;;;;;;;10230762;28;20039;-61
2023/10/26 15:57:26;;;;;;;9.68;5.22;;;;;;;;;;10240417;29;20043;-62
2023/10/26 16:02:27;;;;;;;14.80;4.53;;;;;;;;;;10228061;28;20035;-61
2023/10/26 16:07:30;;;;;;;9.77;4.88;;;;;;;;;;10245759;28;20031;-63
2023/10/26 16:12:30;;;;;;;9.82;4.68;;;;;;;;;;10240473;28;20050;-61
2023/10/26 16:17:33;;;;;;;10.07;4.45;;;;;;;;;;10245598;28;20451;-63
2023/10/26 16:22:34;;;;;;;9.35;4.50;;;;;;;;;;10226220;28;20031;-62
2023/10/26 16:27:34;;;;;;;10.70;4.68;;;;;;;;;;10234627;28;20023;-63
2023/10/26 16:32:36;;;;;;;15.13;8.00;;;;;;;;;;10236723;28;20062;-63
2023/10/26 16:37:37;;;;;;;22.27;11.65;;;;;;;;;;10234621;28;20036;-62
2023/10/26 16:42:38;;;;;;;21.45;12.43;;;;;;;;;;10243606;29;20031;-63
2023/10/26 16:47:38;;;;;;;24.00;12.88;;;;;;;;;;10245690;28;20031;-63
2023/10/26 16:52:39;;;;;;;18.25;12.23;;;;;;;;;;10244138;28;20224;-65
2023/10/26 16:57:40;;;;;;;20.65;10.90;;;;;;;;;;10237849;28;20132;-65
2023/10/26 17:02:40;;;;;;;22.13;10.80;;;;;;;;;;10236565;28;20027;-64
2023/10/26 17:07:42;;;;;;;18.20;10.77;;;;;;;;;;10243025;28;20031;-64
2023/10/26 17:12:42;;;;;;;15.13;9.77;;;;;;;;;;10246914;28;20035;-64
2023/10/26 17:17:43;;;;;;;18.40;9.40;;;;;;;;;;10239477;28;20484;-66
2023/10/26 17:22:44;;;;;;;18.52;9.68;;;;;;;;;;10227086;28;20086;-65
2023/10/26 17:27:45;;;;;;;22.92;9.15;;;;;;;;;;10217961;28;20167;-63
2023/10/26 17:32:46;;;;;;;14.90;8.77;;;;;;;;;;10234279;28;20379;-63
2023/10/26 17:37:47;;;;;;;15.95;9.63;;;;;;;;;;10233646;28;20373;-62
2023/10/26 17:42:48;;;;;;;17.67;8.35;;;;;;;;;;10222702;28;20027;-63
2023/10/26 17:47:48;;;;;;;13.00;8.27;;;;;;;;;;10230854;28;20043;-63
2023/10/26 17:52:49;;;;;;;18.98;8.55;;;;;;;;;;10244458;28;20395;-63
2023/10/26 17:57:50;;;;;;;11.27;7.65;;;;;;;;;;10239091;28;20495;-63
2023/10/26 18:02:50;;;;;;;11.55;7.68;;;;;;;;;;10247191;28;20146;-63
2023/10/26 18:07:52;;;;;;;11.38;7.15;;;;;;;;;;10246515;28;20035;-62
2023/10/26 18:12:53;;;;;;;10.82;6.80;;;;;;;;;;10243672;28;20103;-63
2023/10/26 18:17:53;;;;;;;12.05;6.78;;;;;;;;;;10236063;28;20098;-64
2023/10/26 18:22:54;;;;;;;10.73;6.80;;;;;;;;;;10224960;28;20646;-63
2023/10/26 18:27:55;;;;;;;11.43;6.75;;;;;;;;;;10242268;28;20042;-64
2023/10/26 18:32:56;;;;;;;15.85;7.22;;;;;;;;;;10245485;28;20067;-65
2023/10/26 18:37:57;;;;;;;14.88;8.00;;;;;;;;;;10245873;28;20490;-64
2023/10/26 18:42:57;;;;;;;16.95;7.82;;;;;;;;;;10244791;28;20031;-63
2023/10/26 18:47:58;;;;;;;13.70;7.65;;;;;;;;;;10241157;28;20035;-63
2023/10/26 18:53:00;;;;;;;13.15;7.68;;;;;;;;;;10239879;28;20044;-63
2023/10/26 18:58:01;;;;;;;20.65;8.75;;;;;;;;;;10225229;28;20044;-63
2023/10/26 19:03:01;;;;;;;17.35;8.38;;;;;;;;;;10227728;28;20144;-64
2023/10/26 19:08:04;;;;;;;16.75;8.73;;;;;;;;;;10239308;28;20035;-63
2023/10/26 19:13:06;;;;;;;13.38;8.30;;;;;;;;;;10246521;28;20042;-64
2023/10/26 19:18:07;;;;;;;15.52;7.97;;;;;;;;;;10246525;28;20033;-63
2023/10/26 19:23:08;;;;;;;13.98;9.02;;;;;;;;;;10249360;28;20038;-64
2023/10/26 19:28:08;;;;;;;13.95;7.35;;;;;;;;;;10241422;28;20464;-63
2023/10/26 19:33:09;;;;;;;12.45;7.80;;;;;;;;;;10244009;28;20023;-64
2023/10/26 19:38:10;;;;;;;12.25;7.30;;;;;;;;;;10245188;28;20480;-64
2023/10/26 19:43:10;;;;;;;13.80;7.05;;;;;;;;;;10238541;28;20275;-63
2023/10/26 19:48:11;;;;;;;12.45;7.60;;;;;;;;;;10235407;28;20027;-63
2023/10/26 19:53:12;;;;;;;9.40;6.20;;;;;;;;;;10246136;28;20050;-63
2023/10/26 19:58:12;;;;;;;14.07;6.88;;;;;;;;;;10246108;28;20038;-64
2023/10/26 20:03:14;;;;;;;16.30;7.20;;;;;;;;;;10239921;28;20086;-64
2023/10/26 20:08:14;;;;;;;21.40;6.35;;;;;;;;;;10241945;28;20054;-63
2023/10/26 20:13:15;;;;;;;11.35;6.03;;;;;;;;;;10240650;28;20035;-62
2023/10/26 20:18:15;;;;;;;9.35;6.22;;;;;;;;;;10243041;28;20263;-63
2023/10/26 20:23:16;;;;;;;8.05;5.18;;;;;;;;;;10244997;29;20031;-58
2023/10/26 20:28:17;;;;;;;19.65;6.05;;;;;;;;;;10249119;28;20039;-63
2023/10/26 20:33:18;;;;;;;11.43;5.05;;;;;;;;;;10242177;28;20027;-65
2023/10/26 20:38:19;;;;;;;16.10;5.70;;;;;;;;;;10244220;28;20031;-63
2023/10/26 20:43:20;;;;;;;14.65;5.80;;;;;;;;;;10246346;28;20043;-65
2023/10/26 20:48:21;;;;;;;13.73;6.25;;;;;;;;;;10241322;28;20023;-60
2023/10/26 20:53:21;;;;;;;16.58;6.22;;;;;;;;;;10229157;28;20044;-60
2023/10/26 20:58:22;;;;;;;10.63;5.55;;;;;;;;;;10221703;28;20035;-62
2023/10/26 21:03:22;;;;;;;12.60;5.95;;;;;;;;;;10219463;28;20028;-62
2023/10/26 21:08:23;;;;;;;20.00;6.43;;;;;;;;;;10216600;28;20086;-63
2023/10/26 21:13:24;;;;;;;20.00;7.03;;;;;;;;;;10224023;28;20039;-61
2023/10/26 21:18:25;;;;;;;22.55;7.43;;;;;;;;;;10222061;28;20039;-63
2023/10/26 21:23:27;;;;;;;13.38;6.72;;;;;;;;;;10239434;28;20031;-62
2023/10/26 21:28:27;;;;;;;16.65;6.80;;;;;;;;;;10238173;28;20035;-62
2023/10/26 21:33:28;;;;;;;10.68;6.38;;;;;;;;;;10238311;28;20031;-61
2023/10/26 21:38:28;;;;;;;16.35;6.32;;;;;;;;;;10237958;28;20043;-63
2023/10/26 21:43:29;;;;;;;17.23;6.80;;;;;;;;;;10240140;28;20427;-58
2023/10/26 21:48:30;;;;;;;14.60;5.97;;;;;;;;;;10233959;28;20031;-59
2023/10/26 21:53:30;;;;;;;12.63;6.47;;;;;;;;;;10244243;28;20089;-63
2023/10/26 21:58:31;;;;;;;16.65;6.07;;;;;;;;;;10236394;28;20146;-59
2023/10/26 22:03:32;;;;;;;11.05;6.10;;;;;;;;;;10251157;28;20510;-59
2023/10/26 22:08:33;;;;;;;12.20;5.80;;;;;;;;;;10240472;28;20383;-58
2023/10/26 22:13:33;;;;;;;8.43;5.47;;;;;;;;;;10243774;28;20083;-58
2023/10/26 22:18:34;;;;;;;13.73;6.20;;;;;;;;;;10247015;28;20534;-59
2023/10/26 22:23:34;;;;;;;9.07;5.35;;;;;;;;;;10258119;28;20097;-60
2023/10/26 22:28:35;;;;;;;10.13;5.40;;;;;;;;;;10249984;28;20023;-60
2023/10/26 22:33:37;;;;;;;9.30;5.15;;;;;;;;;;10258447;28;20098;-63
2023/10/26 22:38:38;;;;;;;9.05;5.57;;;;;;;;;;10250086;28;20878;-64
2023/10/26 22:43:38;;;;;;;9.10;5.03;;;;;;;;;;10250441;28;20086;-60
2023/10/26 22:48:39;;;;;;;14.43;5.07;;;;;;;;;;10238884;28;20023;-59
2023/10/26 22:53:40;;;;;;;6.35;4.50;;;;;;;;;;10249106;28;20039;-59
2023/10/26 22:58:40;;;;;;;8.65;4.90;;;;;;;;;;10243959;28;20034;-59
2023/10/26 23:03:41;;;;;;;7.43;4.50;;;;;;;;;;10242499;28;20023;-59
2023/10/26 23:08:41;;;;;;;6.25;4.53;;;;;;;;;;10244890;28;20031;-59
2023/10/26 23:13:42;;;;;;;9.32;4.30;;;;;;;;;;10245204;28;20034;-59
2023/10/26 23:18:43;;;;;;;5.88;4.20;;;;;;;;;;10249046;28;20522;-59
2023/10/26 23:23:43;;;;;;;5.32;4.35;;;;;;;;;;10247839;28;20496;-59
2023/10/26 23:28:44;;;;;;;5.07;4.15;;;;;;;;;;10245547;28;20020;-60
2023/10/26 23:33:44;;;;;;;5.15;4.10;;;;;;;;;;10245888;28;20048;-59
2023/10/26 23:38:45;;;;;;;8.35;3.92;;;;;;;;;;10247731;28;20035;-58
2023/10/26 23:43:47;;;;;;;6.97;4.05;;;;;;;;;;10237192;28;20105;-59
2023/10/26 23:48:48;;;;;;;5.05;3.78;;;;;;;;;;10235754;28;20033;-59
2023/10/26 23:53:48;;;;;;;4.82;3.72;;;;;;;;;;10242906;28;20054;-59
2023/10/26 23:58:49;;;;;;;4.50;3.65;;;;;;;;;;10239304;28;20071;-59
